Time;durP1;ratioP1;P1;durP2;ratioP2;P2;SDS_P1;SDS_P2;PMS_P1;PMS_P2;Temp;Humidity;BMP_temperature;BMP_pressure;BME280_temperature;BME280_humidity;BME280_pressure;Samples;Min_cycle;Max_cycle;Signal;HPM_P1;HPM_P2
2021/08/24 00:01:18;;;;;;;74.25;44.38;;;15.60;88.30;;;;;;5033839;28;20033;-73
2021/08/24 00:03:44;;;;;;;74.13;43.88;;;15.50;88.60;;;;;;5032502;28;20028;-72
2021/08/24 00:06:11;;;;;;;77.40;46.60;;;15.50;89.10;;;;;;5032451;28;20021;-72
2021/08/24 00:08:40;;;;;;;70.13;43.83;;;15.50;89.20;;;;;;5032487;28;20052;-73
2021/08/24 00:11:06;;;;;;;67.53;41.47;;;15.50;89.40;;;;;;5032088;28;20061;-73
2021/08/24 00:13:32;;;;;;;58.20;36.25;;;15.50;89.60;;;;;;5032263;28;20075;-72
2021/08/24 00:15:58;;;;;;;63.20;38.97;;;15.50;89.30;;;;;;5033809;28;20025;-72
2021/08/24 00:18:24;;;;;;;68.45;39.42;;;15.60;89.00;;;;;;5032187;28;20030;-73
2021/08/24 00:20:52;;;;;;;64.50;38.20;;;15.60;89.00;;;;;;5032101;28;20022;-74
2021/08/24 00:23:20;;;;;;;65.55;37.50;;;15.60;89.60;;;;;;5032258;28;20452;-73
2021/08/24 00:25:51;;;;;;;56.17;35.25;;;15.70;88.80;;;;;;5032368;28;20076;-72
2021/08/24 00:28:17;;;;;;;59.28;37.65;;;15.70;88.20;;;;;;5032656;28;20057;-73
2021/08/24 00:30:43;;;;;;;67.70;39.67;;;15.70;88.20;;;;;;5031923;28;20075;-72
2021/08/24 00:33:09;;;;;;;69.57;38.60;;;15.80;88.00;;;;;;5032496;28;20033;-73
2021/08/24 00:35:39;;;;;;;58.67;35.95;;;15.90;87.40;;;;;;5033780;28;20079;-73
2021/08/24 00:38:16;;;;;;;62.65;36.47;;;16.00;86.30;;;;;;5031718;28;20026;-73
2021/08/24 00:40:42;;;;;;;57.47;33.92;;;16.00;86.50;;;;;;5032392;28;20460;-72
2021/08/24 00:43:10;;;;;;;60.75;36.22;;;16.10;86.00;;;;;;5033290;28;20025;-72
2021/08/24 00:45:39;;;;;;;55.95;34.53;;;16.10;85.50;;;;;;5032078;28;20079;-72
2021/08/24 00:48:06;;;;;;;67.25;39.53;;;16.10;85.40;;;;;;5033253;28;20025;-72
2021/08/24 00:50:37;;;;;;;56.15;35.83;;;16.10;85.20;;;;;;5033456;28;20021;-72
2021/08/24 00:53:11;;;;;;;73.43;41.35;;;16.10;84.90;;;;;;5037235;28;20474;-72
2021/08/24 00:55:40;;;;;;;71.72;39.28;;;16.00;84.70;;;;;;5036076;28;20120;-72
2021/08/24 00:58:10;;;;;;;58.90;34.13;;;16.00;84.80;;;;;;5036613;28;20025;-72
2021/08/24 01:00:37;;;;;;;56.28;34.35;;;16.10;85.20;;;;;;5035615;28;20057;-72
2021/08/24 01:03:12;;;;;;;66.88;39.25;;;16.20;84.60;;;;;;5036806;28;20360;-73
2021/08/24 01:05:40;;;;;;;66.93;38.97;;;16.20;84.30;;;;;;5035713;28;20025;-72
2021/08/24 01:08:22;;;;;;;66.30;38.80;;;16.10;84.30;;;;;;5035452;28;20085;-73
2021/08/24 01:11:15;;;;;;;65.55;38.30;;;16.20;84.40;;;;;;5036598;28;20025;-72
2021/08/24 01:13:50;;;;;;;63.05;35.70;;;16.20;84.60;;;;;;5036094;28;20041;-72
2021/08/24 01:16:29;;;;;;;65.18;37.05;;;16.40;84.20;;;;;;5036526;28;20018;-72
2021/08/24 01:19:17;;;;;;;63.55;37.25;;;16.50;83.40;;;;;;5035430;28;20026;-72
2021/08/24 01:21:54;;;;;;;67.80;38.40;;;16.40;82.60;;;;;;5036288;28;20444;-72
2021/08/24 01:24:38;;;;;;;60.65;34.85;;;16.20;82.20;;;;;;5035104;28;20017;-72
2021/08/24 01:27:10;;;;;;;61.92;37.22;;;15.90;83.10;;;;;;5035462;28;20083;-72
2021/08/24 01:30:02;;;;;;;64.00;36.30;;;15.80;84.10;;;;;;5036157;28;20025;-72
2021/08/24 01:32:36;;;;;;;55.58;35.05;;;15.70;84.50;;;;;;5034933;28;20036;-72
2021/08/24 01:35:44;;;;;;;60.53;37.65;;;15.80;84.70;;;;;;5036152;28;20028;-72
2021/08/24 01:38:23;;;;;;;66.70;37.78;;;15.70;83.90;;;;;;5027712;28;20034;-72
2021/08/24 01:41:05;;;;;;;65.85;40.05;;;15.50;84.70;;;;;;5036127;28;20455;-72
2021/08/24 01:43:59;;;;;;;59.08;37.40;;;15.50;85.40;;;;;;5035034;28;20044;-74
2021/08/24 01:46:34;;;;;;;66.22;39.65;;;15.40;86.20;;;;;;5036024;28;20026;-74
2021/08/24 01:49:03;;;;;;;67.70;40.47;;;15.50;86.30;;;;;;5035700;28;20083;-69
2021/08/24 01:51:39;;;;;;;66.03;40.20;;;15.40;85.90;;;;;;5035807;28;20256;-71
2021/08/24 01:54:14;;;;;;;66.78;38.63;;;15.30;86.70;;;;;;5035859;28;20026;-71
2021/08/24 01:56:40;;;;;;;62.67;37.28;;;15.20;87.30;;;;;;5035770;28;20080;-71
2021/08/24 01:59:12;;;;;;;64.90;37.28;;;15.20;87.50;;;;;;5035640;28;20057;-73
2021/08/24 02:01:47;;;;;;;60.72;37.33;;;15.20;87.90;;;;;;5034441;28;20036;-70
2021/08/24 02:04:23;;;;;;;61.77;38.47;;;15.20;87.90;;;;;;5034361;28;20028;-70
2021/08/24 02:06:50;;;;;;;64.40;37.92;;;15.20;87.80;;;;;;5035298;28;20031;-70
2021/08/24 02:09:34;;;;;;;58.00;35.40;;;15.10;87.60;;;;;;5034490;28;20475;-71
2021/08/24 02:12:01;;;;;;;62.10;39.10;;;15.00;88.90;;;;;;5035381;28;20470;-70
2021/08/24 02:14:27;;;;;;;58.63;35.65;;;15.10;89.40;;;;;;5035261;28;20059;-70
2021/08/24 02:16:53;;;;;;;62.47;35.97;;;15.20;88.90;;;;;;5035330;28;20053;-70
2021/08/24 02:19:27;;;;;;;59.28;36.60;;;15.20;89.00;;;;;;5034358;28;20491;-69
2021/08/24 02:21:56;;;;;;;74.07;37.65;;;15.30;89.10;;;;;;5035148;28;20022;-71
2021/08/24 02:24:29;;;;;;;63.55;35.45;;;15.30;88.00;;;;;;5033960;28;20029;-71
2021/08/24 02:26:56;;;;;;;64.45;35.95;;;15.30;88.10;;;;;;5034165;28;20033;-71
2021/08/24 02:29:22;;;;;;;70.40;38.92;;;15.20;87.80;;;;;;5033809;28;20036;-70
2021/08/24 02:32:12;;;;;;;60.88;33.63;;;15.10;87.60;;;;;;5034239;28;20030;-72
2021/08/24 02:34:54;;;;;;;69.80;36.53;;;15.00;88.60;;;;;;5023119;28;20499;-71
2021/08/24 02:37:37;;;;;;;69.43;38.67;;;15.00;88.40;;;;;;5035083;28;20017;-72
2021/08/24 02:40:17;;;;;;;65.65;36.50;;;15.00;88.50;;;;;;5034022;28;20048;-71
2021/08/24 02:42:52;;;;;;;67.45;37.40;;;15.10;89.30;;;;;;5034750;28;20022;-71
2021/08/24 02:45:25;;;;;;;64.25;37.83;;;15.20;89.30;;;;;;5034885;28;20022;-71
2021/08/24 02:47:53;;;;;;;60.28;37.33;;;15.30;88.60;;;;;;5033345;28;20025;-71
2021/08/24 02:50:20;;;;;;;58.53;34.28;;;15.40;87.90;;;;;;5033421;28;20025;-71
2021/08/24 02:52:45;;;;;;;58.38;33.65;;;15.40;87.80;;;;;;5034616;28;20467;-71
2021/08/24 02:55:11;;;;;;;65.78;36.75;;;15.50;87.30;;;;;;5033187;28;20025;-71
2021/08/24 02:57:37;;;;;;;63.38;36.40;;;15.60;86.40;;;;;;5034559;28;20021;-71
2021/08/24 03:00:05;;;;;;;65.55;36.15;;;15.50;85.30;;;;;;5033355;28;20103;-71
2021/08/24 03:02:31;;;;;;;70.43;37.63;;;15.40;85.30;;;;;;5034321;28;20044;-69
2021/08/24 03:04:57;;;;;;;68.07;35.58;;;15.40;85.40;;;;;;5033317;28;20057;-70
2021/08/24 03:07:27;;;;;;;71.15;37.92;;;15.40;85.30;;;;;;5032574;28;20166;-71
2021/08/24 03:09:55;;;;;;;68.03;36.33;;;15.40;85.00;;;;;;5034536;28;20063;-71
2021/08/24 03:12:28;;;;;;;69.28;35.92;;;15.30;84.90;;;;;;5033877;28;20017;-67
2021/08/24 03:15:15;;;;;;;71.80;38.50;;;15.30;84.80;;;;;;5033367;28;20117;-71
2021/08/24 03:17:49;;;;;;;62.58;36.60;;;15.30;85.20;;;;;;5032069;28;20029;-71
2021/08/24 03:20:16;;;;;;;68.22;37.13;;;15.30;85.60;;;;;;5034382;28;20028;-71
2021/08/24 03:22:44;;;;;;;66.43;35.75;;;15.40;86.00;;;;;;5032887;28;20021;-72
2021/08/24 03:25:12;;;;;;;75.95;39.63;;;15.50;85.80;;;;;;5034676;28;20394;-71
2021/08/24 03:27:41;;;;;;;73.63;38.17;;;15.60;85.40;;;;;;5034377;28;20033;-71
2021/08/24 03:30:10;;;;;;;71.15;40.92;;;15.60;85.20;;;;;;5032895;28;20025;-73
2021/08/24 03:32:36;;;;;;;76.15;39.83;;;15.70;84.60;;;;;;5032263;28;20117;-72
2021/08/24 03:35:03;;;;;;;70.05;38.22;;;15.70;84.40;;;;;;5030812;28;20108;-72
2021/08/24 03:37:29;;;;;;;68.75;38.85;;;15.70;84.50;;;;;;5032186;28;20017;-72
2021/08/24 03:39:55;;;;;;;85.85;36.63;;;15.80;84.50;;;;;;5032564;28;20665;-73
2021/08/24 03:42:20;;;;;;;79.53;37.83;;;16.00;84.60;;;;;;5031429;28;20517;-71
2021/08/24 03:44:46;;;;;;;68.55;34.92;;;16.20;84.30;;;;;;5032344;28;20037;-70
2021/08/24 03:47:13;;;;;;;68.70;35.10;;;16.40;83.40;;;;;;5033894;28;20025;-75
2021/08/24 03:49:39;;;;;;;66.03;32.30;;;16.60;82.80;;;;;;5032574;28;20021;-79
2021/08/24 03:52:05;;;;;;;61.80;31.73;;;17.00;82.50;;;;;;5033727;28;20028;-78
2021/08/24 03:54:31;;;;;;;62.47;32.35;;;17.40;81.40;;;;;;5032880;28;20025;-74
2021/08/24 03:56:57;;;;;;;52.33;31.50;;;17.90;80.30;;;;;;5033815;28;20364;-76
2021/08/24 03:59:22;;;;;;;61.90;31.38;;;18.20;78.70;;;;;;5027178;28;20029;-77
2021/08/24 04:01:48;;;;;;;51.00;29.33;;;18.60;78.00;;;;;;5028640;28;20021;-73
2021/08/24 04:04:14;;;;;;;50.40;29.25;;;18.90;76.80;;;;;;5031946;28;20025;-71
2021/08/24 04:06:40;;;;;;;51.00;29.08;;;19.30;75.90;;;;;;5033220;28;20033;-70
2021/08/24 04:09:05;;;;;;;51.33;29.38;;;19.80;74.90;;;;;;5030817;28;20383;-70
2021/08/24 04:11:31;;;;;;;54.67;31.45;;;20.20;73.50;;;;;;5032496;28;20029;-71
2021/08/24 04:13:57;;;;;;;61.45;32.20;;;20.50;72.30;;;;;;5031255;28;20164;-78
2021/08/24 04:16:22;;;;;;;62.05;31.15;;;20.90;71.00;;;;;;5032015;28;20021;-79
2021/08/24 04:18:48;;;;;;;56.63;29.33;;;21.20;69.80;;;;;;5032292;28;20048;-79
2021/08/24 04:21:17;;;;;;;50.45;28.35;;;21.60;69.50;;;;;;5032969;28;20021;-78
2021/08/24 04:23:44;;;;;;;55.00;26.67;;;21.90;67.60;;;;;;5032234;28;20049;-78
2021/08/24 04:26:11;;;;;;;52.50;27.60;;;22.30;66.40;;;;;;5035264;28;20635;-77
2021/08/24 04:28:37;;;;;;;50.58;29.83;;;22.50;65.50;;;;;;5035025;28;20432;-77
2021/08/24 04:31:04;;;;;;;49.63;27.08;;;22.50;65.00;;;;;;5034831;28;20550;-77
2021/08/24 04:33:30;;;;;;;54.90;29.48;;;22.40;64.60;;;;;;5035787;28;20029;-77
2021/08/24 04:35:56;;;;;;;52.50;28.40;;;22.40;64.60;;;;;;5037185;28;20067;-77
2021/08/24 04:38:22;;;;;;;57.33;27.35;;;22.50;64.40;;;;;;5035700;28;20120;-78
2021/08/24 04:40:50;;;;;;;59.22;28.48;;;22.70;64.30;;;;;;5037023;28;20175;-78
2021/08/24 04:43:16;;;;;;;49.13;24.25;;;23.10;63.60;;;;;;5036130;28;20025;-78
2021/08/24 04:45:42;;;;;;;47.10;22.08;;;23.20;63.00;;;;;;5037012;28;20022;-79
2021/08/24 04:48:08;;;;;;;41.28;23.38;;;23.10;62.50;;;;;;5037358;28;20036;-80
2021/08/24 04:50:33;;;;;;;38.70;22.55;;;23.40;62.70;;;;;;5035620;28;20345;-79
2021/08/24 04:52:59;;;;;;;35.30;21.27;;;23.70;61.80;;;;;;5035876;28;20024;-80
2021/08/24 04:55:25;;;;;;;41.47;23.33;;;23.80;61.60;;;;;;5035664;28;20351;-80
2021/08/24 04:57:50;;;;;;;37.03;23.73;;;24.00;61.20;;;;;;5035426;28;20036;-80
2021/08/24 05:00:17;;;;;;;38.10;24.90;;;24.20;60.70;;;;;;5035306;28;20021;-80
2021/08/24 05:02:42;;;;;;;41.35;22.73;;;24.40;60.70;;;;;;5035379;28;20470;-80
2021/08/24 05:05:08;;;;;;;33.58;20.38;;;24.60;61.10;;;;;;5036518;28;20021;-80
2021/08/24 05:07:34;;;;;;;32.58;19.45;;;24.90;60.90;;;;;;5035220;28;20073;-79
2021/08/24 05:10:02;;;;;;;30.25;18.65;;;25.00;60.80;;;;;;5035258;28;20063;-79
2021/08/24 05:12:27;;;;;;;35.25;18.80;;;25.20;60.10;;;;;;5036672;28;20076;-80
2021/08/24 05:14:53;;;;;;;35.25;19.13;;;25.30;59.80;;;;;;5035076;28;20375;-80
2021/08/24 05:17:19;;;;;;;29.15;18.02;;;25.40;59.60;;;;;;5035241;28;20076;-80
2021/08/24 05:19:45;;;;;;;30.05;18.35;;;25.70;59.60;;;;;;5035228;28;20018;-80
2021/08/24 05:22:11;;;;;;;28.65;17.10;;;26.00;59.10;;;;;;5036573;28;20029;-79
2021/08/24 05:24:37;;;;;;;29.02;17.20;;;26.10;58.60;;;;;;5035092;28;20029;-80
2021/08/24 05:27:04;;;;;;;26.60;16.55;;;26.50;58.20;;;;;;5034989;28;20018;-80
2021/08/24 05:29:30;;;;;;;28.63;17.42;;;26.90;57.50;;;;;;5036001;28;20064;-80
2021/08/24 05:31:55;;;;;;;26.70;16.13;;;27.40;56.80;;;;;;5034671;28;20041;-80
2021/08/24 05:34:21;;;;;;;32.70;17.27;;;27.70;55.50;;;;;;5034915;28;20026;-81
2021/08/24 05:36:47;;;;;;;26.10;15.15;;;28.10;54.80;;;;;;5034265;28;20021;-81
2021/08/24 05:39:13;;;;;;;20.02;11.52;;;28.20;54.00;;;;;;5034966;28;20033;-81
2021/08/24 05:41:39;;;;;;;17.02;10.10;;;28.30;52.20;;;;;;5035878;28;20028;-81
2021/08/24 05:44:06;;;;;;;22.55;10.82;;;28.40;50.00;;;;;;5034860;28;20021;-79
2021/08/24 05:46:32;;;;;;;16.63;10.68;;;28.30;49.80;;;;;;5034386;28;20017;-80
2021/08/24 05:48:58;;;;;;;17.85;10.45;;;28.20;49.90;;;;;;5034655;28;20087;-80
2021/08/24 05:51:25;;;;;;;16.17;10.25;;;28.00;50.10;;;;;;5034628;28;20056;-79
2021/08/24 05:53:51;;;;;;;15.63;9.15;;;28.00;50.00;;;;;;5034456;28;20067;-80
2021/08/24 05:56:23;;;;;;;13.77;7.80;;;28.20;49.80;;;;;;5034668;28;20022;-81
2021/08/24 05:58:51;;;;;;;15.45;7.20;;;28.40;48.90;;;;;;5034519;28;20026;-81
2021/08/24 06:01:23;;;;;;;13.02;7.50;;;28.40;48.40;;;;;;5037930;28;20025;-79
2021/08/24 06:03:49;;;;;;;13.80;7.82;;;28.50;48.60;;;;;;5043185;28;20025;-79
2021/08/24 06:06:43;;;;;;;12.05;7.88;;;28.80;48.70;;;;;;5040556;28;20028;-79
2021/08/24 06:09:11;;;;;;;12.38;7.22;;;29.30;48.40;;;;;;5037846;28;20472;-81
2021/08/24 06:11:47;;;;;;;11.65;7.13;;;29.60;47.60;;;;;;5036343;28;20104;-81
2021/08/24 06:14:14;;;;;;;11.25;7.05;;;29.70;47.80;;;;;;5034226;28;20098;-80
2021/08/24 06:16:40;;;;;;;12.20;6.68;;;29.90;47.30;;;;;;5035316;28;20028;-80
2021/08/24 06:19:07;;;;;;;14.05;7.55;;;29.90;47.30;;;;;;5034141;28;20036;-80
2021/08/24 06:21:33;;;;;;;7.43;4.60;;;30.10;47.90;;;;;;5033993;28;20056;-80
2021/08/24 06:24:00;;;;;;;8.93;5.20;;;30.30;46.50;;;;;;5028663;28;20049;-75
2021/08/24 06:26:26;;;;;;;8.20;5.07;;;30.20;45.40;;;;;;5027003;28;20021;-79
2021/08/24 06:28:51;;;;;;;10.75;4.45;;;30.20;44.70;;;;;;5029408;28;20028;-82
2021/08/24 06:31:21;;;;;;;9.20;4.18;;;30.10;45.00;;;;;;5032070;28;20037;-86
2021/08/24 06:33:47;;;;;;;12.48;4.95;;;30.20;44.90;;;;;;5030282;28;20049;-82
2021/08/24 06:36:14;;;;;;;6.03;3.40;;;30.10;44.80;;;;;;5028991;28;20450;-82
2021/08/24 06:38:41;;;;;;;7.28;3.97;;;29.90;44.30;;;;;;5028433;28;20051;-84
2021/08/24 06:41:07;;;;;;;5.90;3.22;;;29.80;44.50;;;;;;5025608;28;20416;-81
2021/08/24 06:43:33;;;;;;;4.82;2.90;;;29.80;44.30;;;;;;5031051;28;20018;-80
2021/08/24 06:45:59;;;;;;;5.80;3.13;;;29.90;43.80;;;;;;5032790;28;20108;-81
2021/08/24 06:48:25;;;;;;;9.02;3.10;;;29.90;43.50;;;;;;5031366;28;20030;-82
2021/08/24 06:50:52;;;;;;;6.53;2.85;;;29.80;43.00;;;;;;5029906;28;20033;-80
2021/08/24 06:53:40;;;;;;;4.00;2.85;;;29.90;43.60;;;;;;5021966;28;20049;-81
2021/08/24 06:56:12;;;;;;;4.82;2.60;;;30.10;43.60;;;;;;5023274;28;20115;-78
2021/08/24 06:58:43;;;;;;;4.65;2.60;;;30.20;43.10;;;;;;5032439;28;20402;-80
2021/08/24 07:01:22;;;;;;;4.43;2.65;;;30.50;42.70;;;;;;5031914;28;20026;-79
2021/08/24 07:03:48;;;;;;;5.88;2.85;;;30.80;42.70;;;;;;5024655;28;20468;-82
2021/08/24 07:06:14;;;;;;;5.25;2.50;;;30.90;42.40;;;;;;5029323;28;20452;-80
2021/08/24 07:08:40;;;;;;;4.00;2.47;;;30.90;42.10;;;;;;5032955;28;20045;-78
2021/08/24 07:11:07;;;;;;;4.55;2.65;;;31.10;42.70;;;;;;5028193;28;20025;-79
2021/08/24 07:13:34;;;;;;;4.15;2.70;;;31.50;42.30;;;;;;5025678;28;20447;-78
2021/08/24 07:16:04;;;;;;;6.28;2.80;;;31.70;42.30;;;;;;5030477;28;20026;-78
2021/08/24 07:18:29;;;;;;;3.17;2.25;;;31.90;42.10;;;;;;5031881;28;20112;-80
2021/08/24 07:20:55;;;;;;;4.47;2.58;;;32.00;42.00;;;;;;5031645;28;20416;-79
2021/08/24 07:23:21;;;;;;;6.30;2.30;;;32.20;40.70;;;;;;5031279;28;20064;-79
2021/08/24 07:25:48;;;;;;;3.30;2.17;;;32.10;39.90;;;;;;5032871;28;20117;-78
2021/08/24 07:28:14;;;;;;;4.15;2.22;;;32.00;39.20;;;;;;5031568;28;20044;-81
2021/08/24 07:30:44;;;;;;;3.70;2.20;;;32.20;38.80;;;;;;5033416;28;20025;-78
2021/08/24 07:33:10;;;;;;;4.93;2.20;;;32.20;38.40;;;;;;5032793;28;20091;-79
2021/08/24 07:35:36;;;;;;;5.90;2.60;;;32.30;38.80;;;;;;5033681;28;20030;-78
2021/08/24 07:38:03;;;;;;;5.95;2.20;;;32.30;38.50;;;;;;5032833;28;20036;-80
2021/08/24 07:40:29;;;;;;;3.67;2.15;;;32.30;38.10;;;;;;5032945;28;20033;-78
2021/08/24 07:42:55;;;;;;;4.00;2.42;;;32.20;37.70;;;;;;5036857;28;20097;-79
2021/08/24 07:45:21;;;;;;;4.35;2.33;;;32.20;37.50;;;;;;5042432;28;20036;-81
2021/08/24 07:47:47;;;;;;;4.45;2.05;;;32.30;37.80;;;;;;5041332;28;20055;-79
2021/08/24 07:50:14;;;;;;;3.85;2.17;;;32.50;37.70;;;;;;5033254;28;20151;-79
2021/08/24 07:52:40;;;;;;;5.07;2.22;;;32.60;37.70;;;;;;5032264;28;20408;-79
2021/08/24 07:55:06;;;;;;;3.90;2.10;;;32.80;37.60;;;;;;5031167;28;20088;-80
2021/08/24 07:57:32;;;;;;;3.70;2.20;;;32.90;37.40;;;;;;5030414;28;20041;-81
2021/08/24 07:59:58;;;;;;;3.70;2.15;;;33.00;37.30;;;;;;5031866;28;20115;-79
2021/08/24 08:02:24;;;;;;;6.32;2.25;;;33.20;36.80;;;;;;5031178;28;20487;-79
2021/08/24 08:04:49;;;;;;;4.40;2.38;;;33.30;36.70;;;;;;5031123;28;20032;-80
2021/08/24 08:07:16;;;;;;;9.07;2.30;;;33.10;36.60;;;;;;5032018;28;20041;-79
2021/08/24 08:09:42;;;;;;;5.28;3.20;;;33.00;36.90;;;;;;5032677;28;20021;-79
2021/08/24 08:12:09;;;;;;;8.70;4.10;;;33.20;38.80;;;;;;5029896;28;20025;-80
2021/08/24 08:14:35;;;;;;;7.10;3.30;;;33.50;40.40;;;;;;5031969;28;20075;-78
2021/08/24 08:17:01;;;;;;;4.72;2.92;;;34.10;40.10;;;;;;5031625;28;20445;-80
2021/08/24 08:19:27;;;;;;;4.80;3.50;;;34.60;39.90;;;;;;5036935;28;20029;-83
2021/08/24 08:21:53;;;;;;;5.78;3.05;;;34.90;39.90;;;;;;5047923;28;20029;-85
2021/08/24 08:24:19;;;;;;;5.13;3.10;;;34.90;39.50;;;;;;5031141;28;20375;-83
2021/08/24 08:26:44;;;;;;;6.10;3.70;;;34.50;39.90;;;;;;5029396;28;20108;-80
2021/08/24 08:29:11;;;;;;;11.60;10.45;;;34.30;41.00;;;;;;5029774;28;20383;-80
2021/08/24 08:31:42;;;;;;;5.15;4.10;;;34.60;41.60;;;;;;5032709;28;20028;-80
2021/08/24 08:34:10;;;;;;;6.45;3.92;;;34.90;40.00;;;;;;5031069;28;20346;-81
2021/08/24 08:36:36;;;;;;;6.82;4.93;;;34.60;40.60;;;;;;5030630;28;20025;-79
2021/08/24 08:39:02;;;;;;;10.70;9.05;;;34.60;40.80;;;;;;5029773;28;20033;-81
2021/08/24 08:41:31;;;;;;;15.48;13.98;;;34.70;41.70;;;;;;5030634;28;20029;-80
2021/08/24 08:44:02;;;;;;;8.82;7.45;;;35.00;41.80;;;;;;5029900;28;20479;-81
2021/08/24 08:46:52;;;;;;;10.45;5.00;;;34.70;40.40;;;;;;5031834;28;20061;-79
2021/08/24 08:49:51;;;;;;;6.95;4.60;;;34.10;40.20;;;;;;5031594;28;20109;-80
2021/08/24 08:52:35;;;;;;;10.60;7.70;;;33.80;40.80;;;;;;5030506;28;20022;-79
2021/08/24 08:55:23;;;;;;;9.95;6.88;;;33.90;41.70;;;;;;5042429;28;20022;-79
2021/08/24 08:58:13;;;;;;;6.68;4.82;;;34.20;41.40;;;;;;5030210;28;20046;-80
2021/08/24 09:01:05;;;;;;;6.18;3.30;;;34.30;41.10;;;;;;5024326;28;20030;-79
2021/08/24 09:03:50;;;;;;;7.13;3.50;;;33.90;41.10;;;;;;5030783;28;20033;-78
2021/08/24 09:06:17;;;;;;;5.05;3.25;;;33.60;40.80;;;;;;5025212;28;20522;-80
2021/08/24 09:08:44;;;;;;;10.73;3.60;;;33.40;40.50;;;;;;5031135;28;20076;-79
2021/08/24 09:11:11;;;;;;;5.28;3.40;;;33.20;40.40;;;;;;5033433;28;20122;-79
2021/08/24 09:13:44;;;;;;;4.78;2.60;;;32.90;40.80;;;;;;5036466;28;20021;-80
2021/08/24 09:16:35;;;;;;;4.40;3.00;;;32.70;40.70;;;;;;5043319;28;20463;-78
2021/08/24 09:19:43;;;;;;;4.90;2.80;;;32.50;41.10;;;;;;5023306;28;20360;-80
2021/08/24 09:22:17;;;;;;;4.90;2.90;;;32.20;41.20;;;;;;5034546;28;20027;-75
2021/08/24 09:24:44;;;;;;;6.17;3.10;;;32.10;41.40;;;;;;5032626;28;20033;-73
2021/08/24 09:27:32;;;;;;;7.88;2.95;;;32.00;42.10;;;;;;5034234;28;20057;-72
2021/08/24 09:29:58;;;;;;;6.00;3.20;;;31.90;42.00;;;;;;5033840;28;20037;-73
2021/08/24 09:32:26;;;;;;;3.92;2.60;;;32.00;42.70;;;;;;5044419;28;20425;-72
2021/08/24 09:35:04;;;;;;;7.25;3.00;;;32.10;42.00;;;;;;5028092;28;20034;-73
2021/08/24 09:37:36;;;;;;;4.88;2.80;;;31.80;42.80;;;;;;5014781;28;20114;-73
2021/08/24 09:40:06;;;;;;;5.38;2.70;;;31.80;42.00;;;;;;5012474;28;20061;-74
2021/08/24 09:42:41;;;;;;;8.18;2.80;;;31.80;41.90;;;;;;5013007;28;20025;-73
2021/08/24 09:45:19;;;;;;;4.75;2.60;;;31.50;41.60;;;;;;5013329;28;20022;-72
2021/08/24 09:48:03;;;;;;;4.30;2.33;;;31.40;41.40;;;;;;5013244;28;20420;-73
2021/08/24 09:50:42;;;;;;;5.82;2.78;;;31.30;41.50;;;;;;5014658;28;20117;-73
2021/08/24 09:53:25;;;;;;;4.60;2.60;;;31.30;41.30;;;;;;5014073;28;20036;-73
2021/08/24 09:55:52;;;;;;;6.38;2.65;;;31.30;41.10;;;;;;5015179;28;20400;-73
2021/08/24 09:58:30;;;;;;;5.53;2.67;;;31.10;41.80;;;;;;5013891;28;20096;-72
2021/08/24 10:01:00;;;;;;;3.85;2.33;;;31.30;42.30;;;;;;5014971;28;20022;-72
2021/08/24 10:03:34;;;;;;;4.90;2.30;;;31.40;42.00;;;;;;5013981;28;20153;-72
2021/08/24 10:06:23;;;;;;;3.80;2.50;;;31.30;41.60;;;;;;5013815;28;20053;-73
2021/08/24 10:08:55;;;;;;;4.30;2.60;;;31.30;41.20;;;;;;5013750;28;20428;-73
2021/08/24 10:11:32;;;;;;;5.68;2.65;;;31.30;40.90;;;;;;5015267;28;20022;-72
2021/08/24 10:14:19;;;;;;;5.28;2.60;;;31.30;41.30;;;;;;5013809;28;20028;-72
2021/08/24 10:16:46;;;;;;;3.83;2.30;;;31.80;41.30;;;;;;5013813;28;20431;-73
2021/08/24 10:19:22;;;;;;;3.38;2.22;;;31.90;39.20;;;;;;5013212;28;20030;-73
2021/08/24 10:21:50;;;;;;;3.00;1.90;;;31.60;39.20;;;;;;5013176;28;20033;-73
2021/08/24 10:24:25;;;;;;;3.95;2.60;;;31.50;38.80;;;;;;5013227;28;20030;-74
2021/08/24 10:26:56;;;;;;;5.97;2.47;;;31.30;39.60;;;;;;5014722;28;20456;-73
2021/08/24 10:29:27;;;;;;;3.53;2.13;;;31.30;39.10;;;;;;5013751;28;20036;-73
2021/08/24 10:31:58;;;;;;;3.33;2.20;;;31.30;39.20;;;;;;5014834;28;20029;-74
2021/08/24 10:34:31;;;;;;;3.00;2.20;;;31.30;39.10;;;;;;5014706;28;20464;-72
2021/08/24 10:37:26;;;;;;;4.13;2.75;;;31.20;39.50;;;;;;5013578;28;20026;-72
2021/08/24 10:39:54;;;;;;;;;;;31.20;38.90;;;;;;5013350;28;20061;-73
2021/08/24 10:42:27;;;;;;;4.97;2.15;;;31.10;39.20;;;;;;5014702;28;19902;-73
2021/08/24 10:44:59;;;;;;;4.43;2.40;;;31.10;38.70;;;;;;5013364;28;20022;-73
2021/08/24 10:47:43;;;;;;;4.22;2.28;;;31.00;38.80;;;;;;5013506;28;20471;-72
2021/08/24 10:50:41;;;;;;;4.77;2.10;;;31.00;39.30;;;;;;5014778;28;20033;-72
2021/08/24 10:53:32;;;;;;;4.07;2.15;;;30.90;38.70;;;;;;5013200;28;20420;-72
2021/08/24 10:56:10;;;;;;;6.15;2.38;;;30.80;38.30;;;;;;5013514;28;20464;-72
2021/08/24 10:58:39;;;;;;;2.92;2.03;;;30.60;38.40;;;;;;5014356;28;20030;-72
2021/08/24 11:01:19;;;;;;;3.83;2.20;;;30.60;38.40;;;;;;5013176;28;20076;-71
2021/08/24 11:04:15;;;;;;;6.72;2.20;;;30.60;38.80;;;;;;5013771;28;20083;-72
2021/08/24 11:07:05;;;;;;;6.25;2.10;;;30.60;39.10;;;;;;5014616;28;20026;-71
2021/08/24 11:10:01;;;;;;;5.70;2.35;;;30.60;38.90;;;;;;5013520;28;20049;-71
2021/08/24 11:12:45;;;;;;;5.38;2.13;;;30.40;38.60;;;;;;5013186;28;20030;-72
2021/08/24 11:15:42;;;;;;;3.47;2.00;;;30.40;39.00;;;;;;5013186;28;20022;-72
2021/08/24 11:18:39;;;;;;;5.30;2.60;;;30.40;38.50;;;;;;5014875;28;20037;-72
2021/08/24 11:21:30;;;;;;;4.63;2.17;;;30.20;39.10;;;;;;5013389;28;20073;-72
2021/08/24 11:24:30;;;;;;;7.35;4.20;;;30.20;38.50;;;;;;5012917;28;20447;-72
2021/08/24 11:27:05;;;;;;;5.15;2.53;;;30.10;38.80;;;;;;5013962;28;20032;-72
2021/08/24 11:29:37;;;;;;;4.75;3.25;;;30.20;38.50;;;;;;5013204;28;20057;-72
2021/08/24 11:32:34;;;;;;;3.08;2.08;;;30.20;38.70;;;;;;5012742;28;20040;-72
2021/08/24 11:35:06;;;;;;;3.30;2.10;;;30.00;38.50;;;;;;5012379;28;20033;-72
2021/08/24 11:37:40;;;;;;;4.78;2.42;;;29.80;39.20;;;;;;5014211;28;20072;-72
2021/08/24 11:40:11;;;;;;;3.53;2.13;;;29.70;39.00;;;;;;5014142;28;20448;-72
2021/08/24 11:42:57;;;;;;;3.92;2.28;;;29.50;38.80;;;;;;5012649;28;20029;-72
2021/08/24 11:46:04;;;;;;;6.10;3.20;;;29.10;39.40;;;;;;5013276;28;20096;-72
2021/08/24 11:48:39;;;;;;;5.13;2.35;;;28.60;40.20;;;;;;5012351;28;20081;-73
2021/08/24 11:51:14;;;;;;;5.15;2.75;;;28.10;41.50;;;;;;5013898;28;20457;-71
2021/08/24 11:53:43;;;;;;;5.13;2.40;;;27.80;43.50;;;;;;5012554;28;20050;-71
2021/08/24 11:56:19;;;;;;;6.22;2.50;;;27.70;44.40;;;;;;5012610;28;20030;-71
2021/08/24 11:58:47;;;;;;;6.20;2.63;;;27.50;43.60;;;;;;5012816;28;20541;-72
2021/08/24 12:01:22;;;;;;;4.32;2.35;;;27.40;43.80;;;;;;5012523;28;20030;-72
2021/08/24 12:03:58;;;;;;;4.88;2.70;;;27.20;43.90;;;;;;5013910;28;20030;-71
2021/08/24 12:06:48;;;;;;;4.20;2.50;;;27.10;44.30;;;;;;5013759;28;20064;-72
2021/08/24 12:09:40;;;;;;;5.07;2.60;;;27.00;43.60;;;;;;5013661;28;20049;-72
2021/08/24 12:12:06;;;;;;;5.18;2.55;;;27.00;44.70;;;;;;5012905;28;20049;-73
2021/08/24 12:14:55;;;;;;;4.88;2.60;;;26.90;44.60;;;;;;5013901;28;20061;-71
2021/08/24 12:17:26;;;;;;;6.65;2.50;;;26.90;45.10;;;;;;5012040;28;20125;-72
2021/08/24 12:19:57;;;;;;;3.33;2.30;;;26.90;44.30;;;;;;5013640;28;20030;-72
2021/08/24 12:22:35;;;;;;;5.53;2.55;;;26.80;45.20;;;;;;5012511;28;20018;-72
2021/08/24 12:25:35;;;;;;;4.03;2.60;;;26.80;44.80;;;;;;5012676;28;20029;-72
2021/08/24 12:28:07;;;;;;;4.15;2.20;;;26.80;45.00;;;;;;5013618;28;20054;-73
2021/08/24 12:30:56;;;;;;;5.68;2.85;;;26.90;44.40;;;;;;5012212;28;20021;-72
2021/08/24 12:33:30;;;;;;;4.03;2.60;;;26.90;44.10;;;;;;5011680;28;20148;-71
2021/08/24 12:35:58;;;;;;;4.47;2.77;;;26.90;43.70;;;;;;5024221;28;20387;-73
2021/08/24 12:38:46;;;;;;;5.15;3.08;;;26.80;44.20;;;;;;5025480;28;20075;-74
2021/08/24 12:41:35;;;;;;;4.85;2.40;;;26.80;44.70;;;;;;5035935;28;20036;-73
2021/08/24 12:44:13;;;;;;;5.35;3.20;;;26.70;44.80;;;;;;5032626;28;20455;-73
2021/08/24 12:46:50;;;;;;;7.00;2.40;;;26.70;45.00;;;;;;5033786;28;20025;-73
2021/08/24 12:49:17;;;;;;;6.75;3.88;;;26.60;45.40;;;;;;5034753;28;20419;-72
2021/08/24 12:51:51;;;;;;;6.07;3.00;;;26.60;45.60;;;;;;5055937;28;20024;-73
2021/08/24 12:54:26;;;;;;;4.07;2.57;;;26.60;45.10;;;;;;5051856;28;20351;-73
2021/08/24 12:57:04;;;;;;;4.30;2.35;;;26.50;45.80;;;;;;5035281;28;20044;-73
2021/08/24 12:59:33;;;;;;;4.50;2.38;;;26.60;47.30;;;;;;5034237;28;20049;-74
2021/08/24 13:02:11;;;;;;;5.85;2.30;;;26.50;47.00;;;;;;5034481;28;20464;-74
2021/08/24 13:04:38;;;;;;;5.07;2.63;;;26.50;47.30;;;;;;5035316;28;20375;-73